Terminal Aerodrome Forecast
Issued by NWS Shreveport, LA

Home | Current Version | Previous Version | Text Only | Print | Product List | Glossary On
Versions: 1 2 3 4 5 6 7 8 9 10 11 12 13
932
FTUS44 KSHV 190524
TAFLFK
TAF
KLFK 190524Z 1906/2006 00000KT P6SM BKN280
      TEMPO 1911/1914 2SM BR BKN010 OVC280
     FM191400 VRB03KT 1SM BR BKN005 OVC010
     FM191600 11005KT P6SM BKN010 OVC280
     FM191800 11006KT P6SM BKN025 BKN280
     FM192000 13007KT P6SM BKN035 BKN280
     FM200000 11004KT P6SM SCT040 BKN280=

USA.gov is the U.S. government's official web portal to all federal, state and local government web resources and services.